sensor_id;sensor_type;location;lat;lon;timestamp;pressure;altitude;pressure_sealevel;temperature;humidity
55759;BME280;41678;52.126;20.664;2023-04-28T00:01:50;100796.91;;;3.81;66.90
55759;BME280;41678;52.126;20.664;2023-04-28T00:07:10;100797.66;;;3.77;66.67
55759;BME280;41678;52.126;20.664;2023-04-28T00:12:29;100793.94;;;3.67;67.23
55759;BME280;41678;52.126;20.664;2023-04-28T00:17:49;100792.91;;;3.61;67.25
55759;BME280;41678;52.126;20.664;2023-04-28T00:23:08;100796.09;;;3.49;67.43
55759;BME280;41678;52.126;20.664;2023-04-28T00:28:28;100798.56;;;3.44;67.08
55759;BME280;41678;52.126;20.664;2023-04-28T00:33:48;100795.75;;;3.35;67.95
55759;BME280;41678;52.126;20.664;2023-04-28T00:39:08;100795.56;;;3.29;67.52
55759;BME280;41678;52.126;20.664;2023-04-28T00:44:28;100791.75;;;3.16;68.36
55759;BME280;41678;52.126;20.664;2023-04-28T00:49:48;100801.25;;;3.14;68.50
55759;BME280;41678;52.126;20.664;2023-04-28T00:55:08;100797.59;;;3.07;68.62
55759;BME280;41678;52.126;20.664;2023-04-28T01:00:28;100797.31;;;2.96;69.26
55759;BME280;41678;52.126;20.664;2023-04-28T01:05:48;100806.06;;;3.00;67.80
55759;BME280;41678;52.126;20.664;2023-04-28T01:11:08;100797.19;;;2.93;67.63
55759;BME280;41678;52.126;20.664;2023-04-28T01:16:50;100809.81;;;2.79;69.47
55759;BME280;41678;52.126;20.664;2023-04-28T01:22:10;100794.91;;;2.73;68.51
55759;BME280;41678;52.126;20.664;2023-04-28T01:27:32;100802.56;;;2.67;69.12
55759;BME280;41678;52.126;20.664;2023-04-28T01:32:52;100806.91;;;2.68;68.30
55759;BME280;41678;52.126;20.664;2023-04-28T01:38:12;100804.13;;;2.62;68.68
55759;BME280;41678;52.126;20.664;2023-04-28T01:43:32;100804.19;;;2.63;67.52
55759;BME280;41678;52.126;20.664;2023-04-28T01:48:51;100814.44;;;2.59;67.91
55759;BME280;41678;52.126;20.664;2023-04-28T01:54:11;100810.69;;;2.49;68.36
55759;BME280;41678;52.126;20.664;2023-04-28T01:59:32;100809.56;;;2.40;68.83
55759;BME280;41678;52.126;20.664;2023-04-28T02:04:52;100804.34;;;2.39;68.90
55759;BME280;41678;52.126;20.664;2023-04-28T02:10:11;100808.47;;;2.32;68.92
55759;BME280;41678;52.126;20.664;2023-04-28T02:15:31;100814.34;;;2.26;69.31
55759;BME280;41678;52.126;20.664;2023-04-28T02:20:51;100815.22;;;2.27;68.66
55759;BME280;41678;52.126;20.664;2023-04-28T02:26:11;100813.13;;;2.15;69.73
55759;BME280;41678;52.126;20.664;2023-04-28T02:31:31;100813.88;;;2.11;69.46
55759;BME280;41678;52.126;20.664;2023-04-28T02:36:51;100819.81;;;2.07;69.89
55759;BME280;41678;52.126;20.664;2023-04-28T02:42:10;100806.84;;;2.08;69.17
55759;BME280;41678;52.126;20.664;2023-04-28T02:47:29;100805.75;;;2.00;69.62
55759;BME280;41678;52.126;20.664;2023-04-28T02:52:49;100816.28;;;2.05;68.48
55759;BME280;41678;52.126;20.664;2023-04-28T02:58:09;100820.41;;;1.98;68.77
55759;BME280;41678;52.126;20.664;2023-04-28T03:03:29;100814.25;;;1.96;68.03
55759;BME280;41678;52.126;20.664;2023-04-28T03:08:48;100821.09;;;1.92;68.41
55759;BME280;41678;52.126;20.664;2023-04-28T03:14:08;100821.69;;;1.85;68.45
55759;BME280;41678;52.126;20.664;2023-04-28T03:19:28;100826.72;;;1.80;69.00
55759;BME280;41678;52.126;20.664;2023-04-28T03:24:48;100818.75;;;1.74;68.70
55759;BME280;41678;52.126;20.664;2023-04-28T03:30:08;100836.09;;;1.75;67.95
55759;BME280;41678;52.126;20.664;2023-04-28T03:35:29;100826.28;;;1.66;68.59
55759;BME280;41678;52.126;20.664;2023-04-28T03:40:48;100835.78;;;1.66;68.37
55759;BME280;41678;52.126;20.664;2023-04-28T03:46:33;100832.22;;;1.62;69.08
55759;BME280;41678;52.126;20.664;2023-04-28T03:51:54;100829.41;;;1.56;69.23
55759;BME280;41678;52.126;20.664;2023-04-28T03:57:14;100831.13;;;1.55;69.13
55759;BME280;41678;52.126;20.664;2023-04-28T04:02:34;100838.91;;;1.55;68.55
55759;BME280;41678;52.126;20.664;2023-04-28T04:07:53;100846.53;;;1.51;69.72
55759;BME280;41678;52.126;20.664;2023-04-28T04:13:13;100843.88;;;1.49;69.72
55759;BME280;41678;52.126;20.664;2023-04-28T04:18:34;100841.50;;;1.55;68.93
55759;BME280;41678;52.126;20.664;2023-04-28T04:24:19;100850.31;;;1.61;68.91
55759;BME280;41678;52.126;20.664;2023-04-28T04:29:39;100853.91;;;1.64;69.12
55759;BME280;41678;52.126;20.664;2023-04-28T04:35:06;100856.00;;;1.75;68.28
55759;BME280;41678;52.126;20.664;2023-04-28T04:40:25;100854.47;;;1.81;68.00
55759;BME280;41678;52.126;20.664;2023-04-28T04:45:45;100853.09;;;1.91;68.31
55759;BME280;41678;52.126;20.664;2023-04-28T04:51:06;100852.38;;;1.97;68.14
55759;BME280;41678;52.126;20.664;2023-04-28T04:56:26;100861.50;;;2.11;67.91
55759;BME280;41678;52.126;20.664;2023-04-28T05:01:46;100861.72;;;2.18;68.56
55759;BME280;41678;52.126;20.664;2023-04-28T05:07:07;100858.75;;;2.34;68.04
55759;BME280;41678;52.126;20.664;2023-04-28T05:12:27;100867.03;;;2.50;67.93
55759;BME280;41678;52.126;20.664;2023-04-28T05:17:47;100861.47;;;2.66;68.89
55759;BME280;41678;52.126;20.664;2023-04-28T05:23:07;100863.03;;;2.90;68.62
55759;BME280;41678;52.126;20.664;2023-04-28T05:28:26;100864.00;;;3.24;69.11
55759;BME280;41678;52.126;20.664;2023-04-28T05:33:49;100873.91;;;3.38;69.32
55759;BME280;41678;52.126;20.664;2023-04-28T05:39:10;100865.75;;;3.58;69.03
55759;BME280;41678;52.126;20.664;2023-04-28T05:44:31;100873.44;;;3.87;69.47
55759;BME280;41678;52.126;20.664;2023-04-28T05:49:52;100878.41;;;4.13;69.60
55759;BME280;41678;52.126;20.664;2023-04-28T05:55:12;100870.91;;;4.25;69.61
55759;BME280;41678;52.126;20.664;2023-04-28T06:00:32;100881.81;;;4.47;69.55
55759;BME280;41678;52.126;20.664;2023-04-28T06:05:53;100879.03;;;4.79;70.15
55759;BME280;41678;52.126;20.664;2023-04-28T06:11:13;100869.88;;;4.98;70.06
55759;BME280;41678;52.126;20.664;2023-04-28T06:16:32;100882.31;;;5.10;70.23
55759;BME280;41678;52.126;20.664;2023-04-28T06:21:52;100878.53;;;5.40;70.08
55759;BME280;41678;52.126;20.664;2023-04-28T06:27:12;100875.13;;;5.44;70.23
55759;BME280;41678;52.126;20.664;2023-04-28T06:32:32;100877.44;;;5.75;70.04
55759;BME280;41678;52.126;20.664;2023-04-28T06:37:51;100879.38;;;5.87;70.19
55759;BME280;41678;52.126;20.664;2023-04-28T06:43:11;100880.44;;;5.98;69.89
55759;BME280;41678;52.126;20.664;2023-04-28T06:48:42;100872.97;;;6.18;70.01
55759;BME280;41678;52.126;20.664;2023-04-28T06:54:02;100879.34;;;6.36;70.22
55759;BME280;41678;52.126;20.664;2023-04-28T06:59:21;100879.66;;;6.58;69.63
55759;BME280;41678;52.126;20.664;2023-04-28T07:04:41;100880.03;;;6.86;69.63
55759;BME280;41678;52.126;20.664;2023-04-28T07:10:01;100872.31;;;6.95;69.83
55759;BME280;41678;52.126;20.664;2023-04-28T07:15:20;100872.59;;;7.18;69.55
55759;BME280;41678;52.126;20.664;2023-04-28T07:20:42;100872.88;;;7.43;69.02
55759;BME280;41678;52.126;20.664;2023-04-28T07:26:01;100860.84;;;7.64;68.60
55759;BME280;41678;52.126;20.664;2023-04-28T07:31:20;100861.03;;;7.81;68.48
55759;BME280;41678;52.126;20.664;2023-04-28T07:36:41;100863.84;;;8.06;68.04
55759;BME280;41678;52.126;20.664;2023-04-28T07:42:01;100853.53;;;8.29;66.74
55759;BME280;41678;52.126;20.664;2023-04-28T07:47:21;100852.66;;;8.33;66.11
55759;BME280;41678;52.126;20.664;2023-04-28T07:52:40;100849.25;;;8.44;66.14
55759;BME280;41678;52.126;20.664;2023-04-28T07:58:00;100840.44;;;8.37;66.63
55759;BME280;41678;52.126;20.664;2023-04-28T08:03:20;100832.78;;;8.65;65.77
55759;BME280;41678;52.126;20.664;2023-04-28T08:08:40;100839.84;;;8.75;65.02
55759;BME280;41678;52.126;20.664;2023-04-28T08:14:00;100832.84;;;8.77;64.52
55759;BME280;41678;52.126;20.664;2023-04-28T08:19:21;100840.72;;;8.81;64.64
55759;BME280;41678;52.126;20.664;2023-04-28T08:24:44;100833.75;;;8.84;64.16
55759;BME280;41678;52.126;20.664;2023-04-28T08:30:07;100825.91;;;8.92;63.81
55759;BME280;41678;52.126;20.664;2023-04-28T08:35:28;100821.59;;;9.11;62.27
55759;BME280;41678;52.126;20.664;2023-04-28T08:40:48;100809.31;;;9.15;63.26
55759;BME280;41678;52.126;20.664;2023-04-28T08:46:08;100814.63;;;9.38;62.26
55759;BME280;41678;52.126;20.664;2023-04-28T08:51:33;100807.66;;;9.53;62.75
55759;BME280;41678;52.126;20.664;2023-04-28T08:56:56;100816.44;;;9.67;61.74
55759;BME280;41678;52.126;20.664;2023-04-28T09:02:15;100809.41;;;9.82;60.08
55759;BME280;41678;52.126;20.664;2023-04-28T09:07:35;100802.44;;;9.87;60.80
55759;BME280;41678;52.126;20.664;2023-04-28T09:12:55;100802.41;;;9.93;61.26
55759;BME280;41678;52.126;20.664;2023-04-28T09:18:15;100803.28;;;9.98;60.01
55759;BME280;41678;52.126;20.664;2023-04-28T09:23:47;100796.25;;;9.97;60.04
55759;BME280;41678;52.126;20.664;2023-04-28T09:29:11;100802.41;;;9.95;59.52
55759;BME280;41678;52.126;20.664;2023-04-28T09:34:42;100793.66;;;9.91;59.78
55759;BME280;41678;52.126;20.664;2023-04-28T09:40:05;100791.00;;;9.94;59.17
55759;BME280;41678;52.126;20.664;2023-04-28T09:45:38;100784.00;;;9.88;59.26
55759;BME280;41678;52.126;20.664;2023-04-28T09:51:05;100779.59;;;9.98;58.19
55759;BME280;41678;52.126;20.664;2023-04-28T09:56:29;100770.84;;;10.05;57.94
55759;BME280;41678;52.126;20.664;2023-04-28T10:01:49;100765.53;;;10.07;58.93
55759;BME280;41678;52.126;20.664;2023-04-28T10:07:11;100762.03;;;10.16;58.24
55759;BME280;41678;52.126;20.664;2023-04-28T10:12:31;100748.88;;;10.16;58.54
55759;BME280;41678;52.126;20.664;2023-04-28T10:17:52;100740.13;;;10.17;58.16
55759;BME280;41678;52.126;20.664;2023-04-28T10:29:24;100733.91;;;10.43;59.23
55759;BME280;41678;52.126;20.664;2023-04-28T10:34:44;100726.00;;;10.49;59.41
55759;BME280;41678;52.126;20.664;2023-04-28T10:56:35;100719.72;;;10.81;56.33
55759;BME280;41678;52.126;20.664;2023-04-28T11:01:54;100705.59;;;10.90;56.21
55759;BME280;41678;52.126;20.664;2023-04-28T11:07:14;100697.66;;;10.93;55.10
55759;BME280;41678;52.126;20.664;2023-04-28T11:12:34;100699.38;;;11.03;55.98
55759;BME280;41678;52.126;20.664;2023-04-28T11:17:56;100697.53;;;11.13;55.58
55759;BME280;41678;52.126;20.664;2023-04-28T11:23:16;100684.34;;;11.16;56.45
55759;BME280;41678;52.126;20.664;2023-04-28T11:28:49;100693.06;;;11.22;55.25
55759;BME280;41678;52.126;20.664;2023-04-28T11:34:10;100679.00;;;11.26;55.09
55759;BME280;41678;52.126;20.664;2023-04-28T11:39:31;100681.56;;;11.32;54.73
55759;BME280;41678;52.126;20.664;2023-04-28T11:44:52;100672.84;;;11.25;54.25
55759;BME280;41678;52.126;20.664;2023-04-28T11:50:12;100674.47;;;11.42;54.88
55759;BME280;41678;52.126;20.664;2023-04-28T11:55:34;100671.75;;;11.50;55.04
55759;BME280;41678;52.126;20.664;2023-04-28T12:01:12;100661.19;;;11.51;55.97
55759;BME280;41678;52.126;20.664;2023-04-28T12:06:34;100663.81;;;11.54;55.77
55759;BME280;41678;52.126;20.664;2023-04-28T12:11:59;100664.59;;;11.64;55.54
55759;BME280;41678;52.126;20.664;2023-04-28T12:17:30;100652.25;;;11.69;54.80
55759;BME280;41678;52.126;20.664;2023-04-28T12:22:50;100648.69;;;11.73;55.29
55759;BME280;41678;52.126;20.664;2023-04-28T12:28:10;100636.34;;;11.75;55.38
55759;BME280;41678;52.126;20.664;2023-04-28T12:33:30;100634.47;;;11.87;55.30
55759;BME280;41678;52.126;20.664;2023-04-28T12:38:52;100627.44;;;11.84;54.44
55759;BME280;41678;52.126;20.664;2023-04-28T12:44:12;100623.78;;;11.96;55.05
55759;BME280;41678;52.126;20.664;2023-04-28T12:49:31;100616.75;;;11.98;55.02
55759;BME280;41678;52.126;20.664;2023-04-28T12:54:51;100614.91;;;12.05;54.99
55759;BME280;41678;52.126;20.664;2023-04-28T13:00:11;100611.41;;;12.04;55.70
55759;BME280;41678;52.126;20.664;2023-04-28T13:05:33;100605.16;;;12.12;55.12
55759;BME280;41678;52.126;20.664;2023-04-28T13:10:53;100594.63;;;12.10;55.18
55759;BME280;41678;52.126;20.664;2023-04-28T13:16:13;100594.53;;;12.16;54.94
55759;BME280;41678;52.126;20.664;2023-04-28T13:21:33;100586.56;;;12.21;54.21
55759;BME280;41678;52.126;20.664;2023-04-28T13:26:53;100590.00;;;12.26;55.03
55759;BME280;41678;52.126;20.664;2023-04-28T13:32:12;100583.72;;;12.37;54.79
55759;BME280;41678;52.126;20.664;2023-04-28T13:37:32;100574.91;;;12.38;54.08
55759;BME280;41678;52.126;20.664;2023-04-28T13:42:51;100559.03;;;12.39;54.16
55759;BME280;41678;52.126;20.664;2023-04-28T13:48:11;100559.09;;;12.35;55.04
55759;BME280;41678;52.126;20.664;2023-04-28T13:53:31;100560.84;;;12.37;55.58
55759;BME280;41678;52.126;20.664;2023-04-28T13:58:51;100552.88;;;12.39;55.16
55759;BME280;41678;52.126;20.664;2023-04-28T14:04:11;100543.88;;;12.51;54.47
55759;BME280;41678;52.126;20.664;2023-04-28T14:09:30;100542.31;;;12.39;53.75
55759;BME280;41678;52.126;20.664;2023-04-28T14:14:51;100539.66;;;12.39;53.66
55759;BME280;41678;52.126;20.664;2023-04-28T14:20:11;100528.94;;;12.51;54.28
55759;BME280;41678;52.126;20.664;2023-04-28T14:25:31;100532.34;;;12.56;54.46
55759;BME280;41678;52.126;20.664;2023-04-28T14:30:52;100512.94;;;12.59;54.88
55759;BME280;41678;52.126;20.664;2023-04-28T14:36:12;100511.97;;;12.66;53.56
55759;BME280;41678;52.126;20.664;2023-04-28T14:41:32;100498.91;;;12.55;54.50
55759;BME280;41678;52.126;20.664;2023-04-28T14:46:51;100503.16;;;12.66;54.52
55759;BME280;41678;52.126;20.664;2023-04-28T14:52:11;100497.09;;;12.59;54.63
55759;BME280;41678;52.126;20.664;2023-04-28T14:57:31;100496.97;;;12.68;54.75
55759;BME280;41678;52.126;20.664;2023-04-28T15:02:52;100481.97;;;12.69;54.85
55759;BME280;41678;52.126;20.664;2023-04-28T15:08:12;100480.31;;;12.63;54.94
55759;BME280;41678;52.126;20.664;2023-04-28T15:13:32;100480.28;;;12.65;55.09
55759;BME280;41678;52.126;20.664;2023-04-28T15:18:52;100472.34;;;12.66;55.20
55759;BME280;41678;52.126;20.664;2023-04-28T15:24:12;100468.88;;;12.63;54.75
55759;BME280;41678;52.126;20.664;2023-04-28T15:29:32;100468.06;;;12.57;54.41
55759;BME280;41678;52.126;20.664;2023-04-28T15:34:52;100471.53;;;12.63;55.11
55759;BME280;41678;52.126;20.664;2023-04-28T15:40:15;100464.44;;;12.65;55.23
55759;BME280;41678;52.126;20.664;2023-04-28T15:45:37;100454.84;;;12.57;54.55
55759;BME280;41678;52.126;20.664;2023-04-28T15:50:57;100447.03;;;12.53;54.41
55759;BME280;41678;52.126;20.664;2023-04-28T15:56:17;100454.91;;;12.56;55.07
55759;BME280;41678;52.126;20.664;2023-04-28T16:01:37;100452.28;;;12.54;55.65
55759;BME280;41678;52.126;20.664;2023-04-28T16:06:56;100439.97;;;12.55;55.90
55759;BME280;41678;52.126;20.664;2023-04-28T16:12:16;100442.47;;;12.61;56.58
55759;BME280;41678;52.126;20.664;2023-04-28T16:17:36;100434.47;;;12.66;56.49
55759;BME280;41678;52.126;20.664;2023-04-28T16:22:57;100434.47;;;12.66;56.48
55759;BME280;41678;52.126;20.664;2023-04-28T16:28:16;100433.59;;;12.67;56.09
55759;BME280;41678;52.126;20.664;2023-04-28T16:33:36;100433.59;;;12.67;56.30
55759;BME280;41678;52.126;20.664;2023-04-28T16:38:56;100423.97;;;12.63;56.12
55759;BME280;41678;52.126;20.664;2023-04-28T16:44:15;100420.66;;;12.51;56.17
55759;BME280;41678;52.126;20.664;2023-04-28T16:49:35;100419.81;;;12.49;56.83
55759;BME280;41678;52.126;20.664;2023-04-28T16:54:54;100424.31;;;12.44;56.84
55759;BME280;41678;52.126;20.664;2023-04-28T17:00:14;100409.44;;;12.37;56.61
55759;BME280;41678;52.126;20.664;2023-04-28T17:05:34;100415.75;;;12.29;56.75
55759;BME280;41678;52.126;20.664;2023-04-28T17:10:53;100413.22;;;12.22;57.06
55759;BME280;41678;52.126;20.664;2023-04-28T17:16:13;100409.84;;;12.12;57.51
55759;BME280;41678;52.126;20.664;2023-04-28T17:21:32;100409.09;;;12.03;57.84
55759;BME280;41678;52.126;20.664;2023-04-28T17:26:52;100407.41;;;11.98;58.02
55759;BME280;41678;52.126;20.664;2023-04-28T17:32:12;100403.19;;;11.84;58.26
55759;BME280;41678;52.126;20.664;2023-04-28T17:37:32;100403.38;;;11.73;58.70
55759;BME280;41678;52.126;20.664;2023-04-28T17:42:55;100401.78;;;11.60;58.73
55759;BME280;41678;52.126;20.664;2023-04-28T17:48:15;100408.06;;;11.50;59.01
55759;BME280;41678;52.126;20.664;2023-04-28T17:53:34;100397.72;;;11.34;59.05
55759;BME280;41678;52.126;20.664;2023-04-28T17:58:55;100401.34;;;11.27;59.01
55759;BME280;41678;52.126;20.664;2023-04-28T18:04:15;100401.53;;;11.11;59.14
55759;BME280;41678;52.126;20.664;2023-04-28T18:09:35;100400.78;;;11.00;59.17
55759;BME280;41678;52.126;20.664;2023-04-28T18:14:54;100396.53;;;10.86;59.78
55759;BME280;41678;52.126;20.664;2023-04-28T18:20:16;100404.59;;;10.72;59.74
55759;BME280;41678;52.126;20.664;2023-04-28T18:25:35;100402.97;;;10.59;59.69
55759;BME280;41678;52.126;20.664;2023-04-28T18:30:56;100396.09;;;10.45;59.88
55759;BME280;41678;52.126;20.664;2023-04-28T18:36:15;100398.78;;;10.34;60.03
55759;BME280;41678;52.126;20.664;2023-04-28T18:41:35;100401.47;;;10.27;60.12
55759;BME280;41678;52.126;20.664;2023-04-28T18:46:54;100401.53;;;10.16;60.13
55759;BME280;41678;52.126;20.664;2023-04-28T18:52:14;100395.56;;;10.01;60.33
55759;BME280;41678;52.126;20.664;2023-04-28T18:57:33;100394.72;;;9.95;60.37
55759;BME280;41678;52.126;20.664;2023-04-28T19:02:53;100384.28;;;9.82;60.06
55759;BME280;41678;52.126;20.664;2023-04-28T19:08:12;100401.00;;;9.73;60.43
55759;BME280;41678;52.126;20.664;2023-04-28T19:13:33;100394.91;;;9.62;60.37
55759;BME280;41678;52.126;20.664;2023-04-28T19:18:52;100392.34;;;9.56;60.38
55759;BME280;41678;52.126;20.664;2023-04-28T19:24:12;100379.25;;;9.46;60.46
55759;BME280;41678;52.126;20.664;2023-04-28T19:29:32;100384.53;;;9.39;60.50
55759;BME280;41678;52.126;20.664;2023-04-28T19:34:52;100380.22;;;9.25;60.43
55759;BME280;41678;52.126;20.664;2023-04-28T19:40:11;100390.72;;;9.24;60.79
55759;BME280;41678;52.126;20.664;2023-04-28T19:45:31;100386.41;;;9.13;60.00
55759;BME280;41678;52.126;20.664;2023-04-28T19:50:53;100375.94;;;9.02;60.57
55759;BME280;41678;52.126;20.664;2023-04-28T19:56:12;100380.34;;;8.94;60.67
55759;BME280;41678;52.126;20.664;2023-04-28T20:01:32;100387.34;;;8.90;60.67
55759;BME280;41678;52.126;20.664;2023-04-28T20:06:51;100376.91;;;8.76;60.67
55759;BME280;41678;52.126;20.664;2023-04-28T20:12:12;100388.25;;;8.82;60.62
55759;BME280;41678;52.126;20.664;2023-04-28T20:17:31;100388.28;;;8.69;60.51
55759;BME280;41678;52.126;20.664;2023-04-28T20:22:51;100388.31;;;8.60;60.97
55759;BME280;41678;52.126;20.664;2023-04-28T20:28:10;100390.94;;;8.52;60.73
55759;BME280;41678;52.126;20.664;2023-04-28T20:33:31;100386.53;;;8.49;60.85
55759;BME280;41678;52.126;20.664;2023-04-28T20:38:51;100391.78;;;8.40;61.04
55759;BME280;41678;52.126;20.664;2023-04-28T20:44:10;100384.81;;;8.34;60.97
55759;BME280;41678;52.126;20.664;2023-04-28T20:49:30;100376.94;;;8.34;60.90
55759;BME280;41678;52.126;20.664;2023-04-28T20:54:49;100382.19;;;8.25;61.50
55759;BME280;41678;52.126;20.664;2023-04-28T21:00:10;100372.56;;;8.16;61.17
55759;BME280;41678;52.126;20.664;2023-04-28T21:05:31;100372.56;;;8.02;61.13
55759;BME280;41678;52.126;20.664;2023-04-28T21:10:50;100371.69;;;7.94;61.16
55759;BME280;41678;52.126;20.664;2023-04-28T21:16:14;100362.09;;;7.90;61.24
55759;BME280;41678;52.126;20.664;2023-04-28T21:21:35;100362.94;;;7.79;61.54
55759;BME280;41678;52.126;20.664;2023-04-28T21:26:56;100354.22;;;7.82;61.68
55759;BME280;41678;52.126;20.664;2023-04-28T21:32:17;100361.19;;;7.75;61.66
55759;BME280;41678;52.126;20.664;2023-04-28T21:37:37;100351.56;;;7.62;61.73
55759;BME280;41678;52.126;20.664;2023-04-28T21:42:56;100350.69;;;7.66;61.66
55759;BME280;41678;52.126;20.664;2023-04-28T21:48:16;100348.94;;;7.62;61.71
55759;BME280;41678;52.126;20.664;2023-04-28T21:53:35;100349.78;;;7.55;61.56
55759;BME280;41678;52.126;20.664;2023-04-28T21:58:55;100351.53;;;7.46;62.22
55759;BME280;41678;52.126;20.664;2023-04-28T22:04:14;100354.16;;;7.43;62.00
55759;BME280;41678;52.126;20.664;2023-04-28T22:09:35;100357.66;;;7.48;61.96
55759;BME280;41678;52.126;20.664;2023-04-28T22:14:54;100355.00;;;7.42;62.03
55759;BME280;41678;52.126;20.664;2023-04-28T22:20:14;100350.63;;;7.38;62.37
55759;BME280;41678;52.126;20.664;2023-04-28T22:25:34;100351.50;;;7.31;62.43
55759;BME280;41678;52.126;20.664;2023-04-28T22:30:54;100341.00;;;7.32;62.08
55759;BME280;41678;52.126;20.664;2023-04-28T22:36:14;100340.97;;;7.25;62.39
55759;BME280;41678;52.126;20.664;2023-04-28T22:41:33;100332.22;;;7.15;62.40
55759;BME280;41678;52.126;20.664;2023-04-28T22:46:53;100333.13;;;7.15;62.78
55759;BME280;41678;52.126;20.664;2023-04-28T22:52:12;100336.56;;;7.11;62.79
55759;BME280;41678;52.126;20.664;2023-04-28T22:57:32;100338.31;;;7.09;62.49
55759;BME280;41678;52.126;20.664;2023-04-28T23:02:51;100322.59;;;7.03;62.80
55759;BME280;41678;52.126;20.664;2023-04-28T23:08:11;100332.19;;;6.98;63.01
55759;BME280;41678;52.126;20.664;2023-04-28T23:13:30;100323.41;;;6.86;63.44
55759;BME280;41678;52.126;20.664;2023-04-28T23:18:50;100326.91;;;6.88;63.11
55759;BME280;41678;52.126;20.664;2023-04-28T23:24:09;100313.75;;;6.79;63.04
55759;BME280;41678;52.126;20.664;2023-04-28T23:29:29;100308.53;;;6.82;63.12
55759;BME280;41678;52.126;20.664;2023-04-28T23:34:49;100303.28;;;6.76;63.22
55759;BME280;41678;52.126;20.664;2023-04-28T23:40:08;100299.78;;;6.69;63.37
55759;BME280;41678;52.126;20.664;2023-04-28T23:45:28;100292.75;;;6.63;63.48
55759;BME280;41678;52.126;20.664;2023-04-28T23:50:48;100283.16;;;6.59;63.48
55759;BME280;41678;52.126;20.664;2023-04-28T23:56:08;100277.03;;;6.57;63.24
